createdAt,value
2018-12-24T00:01:09.270Z,2.10
2018-12-24T00:03:58.100Z,2.33
2018-12-24T00:06:47.002Z,2.27
2018-12-24T00:09:35.828Z,2.83
2018-12-24T00:15:06.538Z,2.60
2018-12-24T00:17:36.686Z,2.90
2018-12-24T00:20:25.591Z,3.50
2018-12-24T00:22:57.560Z,2.57
2018-12-24T00:25:27.367Z,3.20
2018-12-24T00:27:58.048Z,3.10
2018-12-24T00:30:28.619Z,3.03
2018-12-24T00:32:58.418Z,2.90
2018-12-24T00:35:28.218Z,4.37
2018-12-24T00:37:58.302Z,3.07
2018-12-24T00:43:11.912Z,3.67
2018-12-24T00:45:53.055Z,3.73
2018-12-24T00:48:33.237Z,3.33
2018-12-24T00:51:40.908Z,2.90
2018-12-24T00:54:29.739Z,3.03
2018-12-24T01:00:46.764Z,3.50
2018-12-24T01:03:35.579Z,3.80
2018-12-24T01:06:38.388Z,2.77
2018-12-24T01:18:37.463Z,1.67
2018-12-24T01:27:27.467Z,1.53
2018-12-24T01:30:09.231Z,1.73
2018-12-24T01:32:50.543Z,1.20
2018-12-24T01:35:30.716Z,2.10
2018-12-24T01:41:40.219Z,2.30
2018-12-24T01:47:28.056Z,1.90
2018-12-24T01:49:57.848Z,1.70
2018-12-24T01:52:46.671Z,2.73
2018-12-24T02:08:03.338Z,2.10
2018-12-24T02:14:09.318Z,2.87
2018-12-24T02:20:02.959Z,2.63
2018-12-24T02:25:51.477Z,3.40
2018-12-24T02:31:49.492Z,3.27
2018-12-24T02:34:30.581Z,3.67
2018-12-24T02:37:12.240Z,3.37
2018-12-24T02:39:53.560Z,4.27
2018-12-24T02:42:34.628Z,3.73
2018-12-24T02:45:16.290Z,2.70
2018-12-24T02:47:57.165Z,3.93
2018-12-24T02:50:38.507Z,2.10
2018-12-24T02:53:20.275Z,2.70
2018-12-24T02:56:01.698Z,1.90
2018-12-24T02:58:43.479Z,3.20
2018-12-24T03:01:25.155Z,2.37
2018-12-24T03:04:07.005Z,2.20
2018-12-24T03:06:48.750Z,2.63
2018-12-24T03:09:34.624Z,3.53
2018-12-24T03:12:12.902Z,3.43
2018-12-24T03:14:42.953Z,3.43
2018-12-24T03:17:31.718Z,3.47
2018-12-24T03:23:19.826Z,3.83
2018-12-24T03:26:28.823Z,4.97
2018-12-24T03:29:17.548Z,4.37
2018-12-24T03:32:18.002Z,5.77
2018-12-24T03:37:31.447Z,4.53
2018-12-24T03:40:13.238Z,5.37
2018-12-24T03:42:54.514Z,4.47
2018-12-24T03:51:35.775Z,4.40
2018-12-24T03:54:24.536Z,4.80
2018-12-24T03:57:13.431Z,4.40
2018-12-24T04:00:21.151Z,4.20
2018-12-24T04:03:21.468Z,4.67
2018-12-24T04:09:28.473Z,6.27
2018-12-24T04:15:58.436Z,7.47
2018-12-24T04:21:46.572Z,7.23
2018-12-24T04:27:45.440Z,7.67
2018-12-24T04:30:34.608Z,9.47
2018-12-24T04:33:26.243Z,8.53
2018-12-24T04:36:07.909Z,9.60
2018-12-24T04:38:38.145Z,8.90
2018-12-24T04:41:27.726Z,8.93
2018-12-24T04:47:15.676Z,10.70
2018-12-24T04:50:04.751Z,10.17
2018-12-24T04:52:53.582Z,11.43
2018-12-24T04:55:42.598Z,11.97
2018-12-24T04:58:51.509Z,11.03
2018-12-24T05:01:21.596Z,13.23
2018-12-24T05:04:24.493Z,13.03
2018-12-24T05:09:42.810Z,13.53
2018-12-24T05:12:31.598Z,11.70
2018-12-24T05:21:14.865Z,15.20
2018-12-24T05:26:54.862Z,13.27
2018-12-24T05:30:04.163Z,13.93
2018-12-24T05:33:11.901Z,14.20
2018-12-24T05:35:41.990Z,17.60
2018-12-24T05:38:11.848Z,14.67
2018-12-24T05:40:41.750Z,15.20
2018-12-24T05:43:11.934Z,12.57
2018-12-24T05:45:41.674Z,13.97
2018-12-24T05:48:30.556Z,14.23
2018-12-24T05:54:28.712Z,14.20
2018-12-24T05:57:17.973Z,15.43
2018-12-24T05:59:47.746Z,11.37
2018-12-24T06:02:17.543Z,13.60
2018-12-24T06:07:37.837Z,13.77
2018-12-24T06:10:26.575Z,14.00
2018-12-24T06:12:56.678Z,11.70
2018-12-24T06:15:26.785Z,12.30
2018-12-24T06:17:57.707Z,10.63
2018-12-24T06:20:27.666Z,12.00
2018-12-24T06:22:57.734Z,9.83
2018-12-24T06:25:27.441Z,10.70
2018-12-24T06:27:57.246Z,7.73
2018-12-24T06:30:30.442Z,7.43
2018-12-24T06:33:00.218Z,6.47
2018-12-24T06:35:32.902Z,7.00
2018-12-24T06:38:02.933Z,9.70
2018-12-24T06:40:33.536Z,8.97
2018-12-24T06:43:03.866Z,9.53
2018-12-24T06:45:36.668Z,6.07
2018-12-24T06:48:06.810Z,10.53
2018-12-24T06:50:39.655Z,6.30
2018-12-24T06:53:11.099Z,7.27
2018-12-24T06:55:42.613Z,6.40
2018-12-24T06:58:12.428Z,7.87
2018-12-24T07:00:45.347Z,9.30
2018-12-24T07:03:15.114Z,7.63
2018-12-24T07:05:47.707Z,6.57
2018-12-24T07:08:17.426Z,6.20
2018-12-24T07:10:50.681Z,7.33
2018-12-24T07:13:20.987Z,5.67
2018-12-24T07:15:53.463Z,6.87
2018-12-24T07:18:23.264Z,6.23
2018-12-24T07:20:56.675Z,5.53
2018-12-24T07:23:26.449Z,4.10
2018-12-24T07:25:59.618Z,4.67
2018-12-24T07:28:29.687Z,5.07
2018-12-24T07:31:02.616Z,3.70
2018-12-24T07:33:32.389Z,6.40
2018-12-24T07:36:07.856Z,5.43
2018-12-24T07:38:37.797Z,3.77
2018-12-24T07:41:08.403Z,4.57
2018-12-24T07:43:38.189Z,4.67
2018-12-24T07:46:12.497Z,5.20
2018-12-24T07:48:42.285Z,6.17
2018-12-24T07:51:14.914Z,3.03
2018-12-24T07:53:44.619Z,3.60
2018-12-24T07:56:20.249Z,4.67
2018-12-24T07:58:50.254Z,4.53
2018-12-24T08:01:20.024Z,1.73
2018-12-24T08:03:49.896Z,3.73
2018-12-24T08:06:23.384Z,3.10
2018-12-24T08:08:53.134Z,3.03
2018-12-24T08:11:26.001Z,4.67
2018-12-24T08:13:55.846Z,5.13
2018-12-24T08:16:28.738Z,2.63
2018-12-24T08:18:58.775Z,3.63
2018-12-24T08:21:31.297Z,3.50
2018-12-24T08:24:01.119Z,4.10
2018-12-24T08:26:33.926Z,2.97
2018-12-24T08:29:03.659Z,4.20
2018-12-24T08:31:35.410Z,2.90
2018-12-24T08:34:05.176Z,6.20
2018-12-24T08:36:38.281Z,2.20
2018-12-24T08:39:08.387Z,3.13
2018-12-24T08:41:41.583Z,2.00
2018-12-24T08:44:12.723Z,5.30
2018-12-24T08:46:45.256Z,3.50
2018-12-24T08:49:15.050Z,5.40
2018-12-24T08:51:46.531Z,3.63
2018-12-24T08:54:16.223Z,3.73
2018-12-24T08:56:49.769Z,2.53
2018-12-24T08:59:20.808Z,1.90
2018-12-24T09:01:53.645Z,3.47
2018-12-24T09:04:23.379Z,2.30
2018-12-24T09:06:55.236Z,1.80
2018-12-24T09:09:25.192Z,1.90
2018-12-24T09:12:14.216Z,2.20
2018-12-24T09:15:02.955Z,3.27
2018-12-24T09:17:51.714Z,3.00
2018-12-24T09:20:40.499Z,3.20
2018-12-24T09:26:50.208Z,1.50
2018-12-24T09:29:10.490Z,2.30
2018-12-24T09:31:59.372Z,4.37
2018-12-24T09:34:48.121Z,2.63
2018-12-24T09:37:29.696Z,2.60
2018-12-24T09:43:29.655Z,3.80
2018-12-24T09:46:17.077Z,3.90
2018-12-24T09:51:49.162Z,3.07
2018-12-24T09:54:37.963Z,3.80
2018-12-24T10:04:02.900Z,4.50
2018-12-24T10:07:01.094Z,4.37
2018-12-24T10:09:19.194Z,1.97
2018-12-24T10:12:07.971Z,3.50
2018-12-24T10:14:38.088Z,2.67
2018-12-24T10:23:23.824Z,2.70
2018-12-24T10:26:12.798Z,6.07
2018-12-24T10:28:42.904Z,2.10
2018-12-24T10:31:52.246Z,5.03
2018-12-24T10:34:22.054Z,3.27
2018-12-24T10:39:51.279Z,3.37
2018-12-24T10:42:29.648Z,2.47
2018-12-24T10:47:55.260Z,3.70
2018-12-24T10:50:25.106Z,2.90
2018-12-24T10:53:14.061Z,2.63
2018-12-24T10:55:43.855Z,2.27
2018-12-24T10:58:32.714Z,2.83
2018-12-24T11:01:21.487Z,5.80
2018-12-24T11:04:10.336Z,4.33
2018-12-24T11:07:18.041Z,1.30
2018-12-24T11:10:08.765Z,2.23
2018-12-24T11:12:38.495Z,1.93
2018-12-24T11:15:25.160Z,4.20
2018-12-24T11:18:13.206Z,3.57
2018-12-24T11:20:51.751Z,1.97
2018-12-24T11:23:21.622Z,1.83
2018-12-24T11:26:29.324Z,2.70
2018-12-24T11:28:59.145Z,1.60
2018-12-24T11:31:48.032Z,2.40
2018-12-24T11:34:36.849Z,2.67
2018-12-24T11:37:25.564Z,3.27
2018-12-24T11:40:24.095Z,3.10
2018-12-24T11:43:13.163Z,1.67
2018-12-24T11:45:54.672Z,2.67
2018-12-24T11:48:35.676Z,3.37
2018-12-24T11:51:05.621Z,1.20
2018-12-24T11:53:35.376Z,2.23
2018-12-24T12:02:14.109Z,4.23
2018-12-24T12:04:43.991Z,2.27
2018-12-24T12:07:51.727Z,1.00
2018-12-24T12:10:41.949Z,2.70
2018-12-24T12:13:30.770Z,1.23
2018-12-24T12:16:19.488Z,0.70
2018-12-24T12:18:49.729Z,1.53
2018-12-24T12:21:43.309Z,1.07
2018-12-24T12:24:32.054Z,2.03
2018-12-24T12:30:51.771Z,2.20
2018-12-24T12:33:21.839Z,0.60
2018-12-24T12:36:10.683Z,3.23
2018-12-24T12:38:59.443Z,0.63
2018-12-24T12:41:55.425Z,0.70
2018-12-24T12:47:19.109Z,1.40
2018-12-24T12:49:49.004Z,0.57
2018-12-24T12:59:06.129Z,1.37
2018-12-24T13:01:54.908Z,1.53
2018-12-24T13:04:43.780Z,4.97
2018-12-24T13:07:13.530Z,0.60
2018-12-24T13:10:04.467Z,0.60
2018-12-24T13:12:53.149Z,1.03
2018-12-24T13:15:42.006Z,2.10
2018-12-24T13:18:30.759Z,2.40
2018-12-24T13:21:19.652Z,4.07
2018-12-24T13:23:49.512Z,1.83
2018-12-24T13:32:46.727Z,3.77
2018-12-24T13:38:26.846Z,2.57
2018-12-24T13:41:15.586Z,2.20
2018-12-24T13:46:59.488Z,1.27
2018-12-24T13:49:41.039Z,2.43
2018-12-24T13:52:22.374Z,1.63
2018-12-24T13:54:54.872Z,2.20
2018-12-24T13:57:25.639Z,1.70
2018-12-24T13:59:55.441Z,1.63
2018-12-24T14:02:25.575Z,3.40
2018-12-24T14:04:55.370Z,0.80
2018-12-24T14:07:25.201Z,4.57
2018-12-24T14:09:54.997Z,2.53
2018-12-24T14:12:24.891Z,1.40
2018-12-24T14:14:56.011Z,1.40
2018-12-24T14:17:25.780Z,1.40
2018-12-24T14:19:55.641Z,0.90
2018-12-24T14:22:25.392Z,1.87
2018-12-24T14:24:55.160Z,1.47
2018-12-24T14:27:25.328Z,0.70
2018-12-24T14:29:55.691Z,1.00
2018-12-24T14:32:25.502Z,2.00
2018-12-24T14:34:58.447Z,1.63
2018-12-24T14:37:28.199Z,1.43
2018-12-24T14:40:01.446Z,2.20
2018-12-24T14:42:31.286Z,1.90
2018-12-24T14:45:04.513Z,1.30
2018-12-24T14:47:34.561Z,1.17
2018-12-24T14:50:08.287Z,0.70
2018-12-24T14:52:38.088Z,3.07
2018-12-24T14:55:11.863Z,0.70
2018-12-24T14:57:42.493Z,1.73
2018-12-24T15:00:14.178Z,2.97
2018-12-24T15:02:44.254Z,1.00
2018-12-24T15:05:21.058Z,2.23
2018-12-24T15:07:50.825Z,2.83
2018-12-24T15:10:20.666Z,0.97
2018-12-24T15:12:50.755Z,1.57
2018-12-24T15:15:21.543Z,1.17
2018-12-24T15:17:51.592Z,1.87
2018-12-24T15:20:24.374Z,1.87
2018-12-24T15:22:54.192Z,2.10
2018-12-24T15:25:26.774Z,1.10
2018-12-24T15:27:56.596Z,1.13
2018-12-24T15:30:29.066Z,2.30
2018-12-24T15:32:59.152Z,4.93
2018-12-24T15:35:30.904Z,3.27
2018-12-24T15:38:00.699Z,1.80
2018-12-24T15:40:34.477Z,3.37
2018-12-24T15:43:04.327Z,2.13
2018-12-24T15:45:35.910Z,2.43
2018-12-24T15:48:05.709Z,1.77
2018-12-24T15:50:39.168Z,2.23
2018-12-24T15:53:09.362Z,18.40
2018-12-24T15:55:42.435Z,8.90
2018-12-24T15:58:12.147Z,7.73
2018-12-24T16:00:45.004Z,2.83
2018-12-24T16:03:14.775Z,3.33
2018-12-24T16:05:50.838Z,3.03
2018-12-24T16:08:21.280Z,2.13
2018-12-24T16:10:54.115Z,2.23
2018-12-24T16:13:24.510Z,14.33
2018-12-24T16:15:54.355Z,11.13
2018-12-24T16:18:24.250Z,6.00
2018-12-24T16:20:57.085Z,5.30
2018-12-24T16:23:26.819Z,1.77
2018-12-24T16:25:59.864Z,1.83
2018-12-24T16:28:29.922Z,2.87
2018-12-24T16:31:02.563Z,1.10
2018-12-24T16:33:32.338Z,8.07
2018-12-24T16:36:06.351Z,12.23
2018-12-24T16:38:36.454Z,4.00
2018-12-24T16:41:09.149Z,2.80
2018-12-24T16:43:38.908Z,3.17
2018-12-24T16:46:16.208Z,1.97
2018-12-24T16:48:46.022Z,5.90
2018-12-24T16:51:15.856Z,3.27
2018-12-24T16:53:45.975Z,1.87
2018-12-24T16:56:18.957Z,3.23
2018-12-24T16:58:50.400Z,4.13
2018-12-24T17:01:20.489Z,4.13
2018-12-24T17:03:50.239Z,3.67
2018-12-24T17:06:23.180Z,3.07
2018-12-24T17:08:53.283Z,3.33
2018-12-24T17:11:25.216Z,2.60
2018-12-24T17:13:54.977Z,3.67
2018-12-24T17:16:30.968Z,5.23
2018-12-24T17:19:03.045Z,6.70
2018-12-24T17:21:32.840Z,9.23
2018-12-24T17:24:02.929Z,8.93
2018-12-24T17:26:32.838Z,8.10
2018-12-24T17:29:02.661Z,6.87
2018-12-24T17:31:35.593Z,8.20
2018-12-24T17:34:05.403Z,5.27
2018-12-24T17:36:38.236Z,8.70
2018-12-24T17:39:09.618Z,7.67
2018-12-24T17:41:39.475Z,4.60
2018-12-24T17:44:09.556Z,6.13
2018-12-24T17:46:42.146Z,5.03
2018-12-24T17:49:12.803Z,4.57
2018-12-24T17:51:46.799Z,7.03
2018-12-24T17:54:16.537Z,12.43
2018-12-24T17:56:49.139Z,15.77
2018-12-24T17:59:19.175Z,16.27
2018-12-24T18:01:51.881Z,9.77
2018-12-24T18:04:21.699Z,8.73
2018-12-24T18:06:54.552Z,9.93
2018-12-24T18:09:24.627Z,10.93
2018-12-24T18:11:57.455Z,7.63
2018-12-24T18:14:27.338Z,7.27
2018-12-24T18:17:02.903Z,6.57
2018-12-24T18:19:32.991Z,6.73
2018-12-24T18:22:03.876Z,10.37
2018-12-24T18:24:33.633Z,8.47
2018-12-24T18:27:04.994Z,5.43
2018-12-24T18:29:35.054Z,2.77
2018-12-24T18:32:07.998Z,3.73
2018-12-24T18:34:37.816Z,5.00
2018-12-24T18:37:12.484Z,5.17
2018-12-24T18:39:42.350Z,4.47
2018-12-24T18:42:14.987Z,5.37
2018-12-24T18:44:45.034Z,6.23
2018-12-24T18:47:17.662Z,5.13
2018-12-24T18:49:47.443Z,8.17
2018-12-24T18:52:20.325Z,5.17
2018-12-24T18:54:50.179Z,4.60
2018-12-24T18:57:21.914Z,6.97
2018-12-24T18:59:51.802Z,8.30
2018-12-24T19:02:25.895Z,8.23
2018-12-24T19:04:57.756Z,7.23
2018-12-24T19:07:27.600Z,4.57
2018-12-24T19:09:57.493Z,6.03
2018-12-24T19:12:30.267Z,3.00
2018-12-24T19:15:00.359Z,3.50
2018-12-24T19:17:41.250Z,3.27
2018-12-24T19:20:05.149Z,4.27
2018-12-24T19:22:35.780Z,3.20
2018-12-24T19:25:05.863Z,3.50
2018-12-24T19:27:40.718Z,3.90
2018-12-24T19:30:11.258Z,3.87
2018-12-24T19:32:41.570Z,4.53
2018-12-24T19:35:11.883Z,5.47
2018-12-24T19:37:44.225Z,5.90
2018-12-24T19:40:16.358Z,5.80
2018-12-24T19:42:46.867Z,5.63
2018-12-24T19:45:17.182Z,9.83
2018-12-24T19:47:50.248Z,6.33
2018-12-24T19:50:20.091Z,10.73
2018-12-24T19:52:53.652Z,9.13
2018-12-24T19:55:23.563Z,5.93
2018-12-24T19:57:56.726Z,9.40
2018-12-24T20:00:26.911Z,8.47
2018-12-24T20:02:57.748Z,10.60
2018-12-24T20:05:29.348Z,9.33
2018-12-24T20:08:02.705Z,6.70
2018-12-24T20:10:32.866Z,7.23
2018-12-24T20:13:03.973Z,10.30
2018-12-24T20:15:34.289Z,10.90
2018-12-24T20:18:10.078Z,7.93
2018-12-24T20:20:39.992Z,8.57
2018-12-24T20:23:11.520Z,5.23
2018-12-24T20:25:41.460Z,5.83
2018-12-24T20:28:14.813Z,6.37
2018-12-24T20:30:45.019Z,4.30
2018-12-24T20:33:17.969Z,7.03
2018-12-24T20:35:47.789Z,4.20
2018-12-24T20:38:19.810Z,6.97
2018-12-24T20:40:49.856Z,4.23
2018-12-24T20:43:22.777Z,4.83
2018-12-24T20:45:52.640Z,4.93
2018-12-24T20:48:24.851Z,4.63
2018-12-24T20:50:54.644Z,4.63
2018-12-24T20:53:26.774Z,4.23
2018-12-24T20:55:56.868Z,7.80
2018-12-24T20:58:30.843Z,7.70
2018-12-24T21:01:01.173Z,6.97
2018-12-24T21:03:34.247Z,5.97
2018-12-24T21:06:04.185Z,6.63
2018-12-24T21:08:36.044Z,4.70
2018-12-24T21:11:06.083Z,5.10
2018-12-24T21:13:39.186Z,6.73
2018-12-24T21:16:09.374Z,6.13
2018-12-24T21:18:42.408Z,9.13
2018-12-24T21:21:12.307Z,5.00
2018-12-24T21:23:43.753Z,5.10
2018-12-24T21:26:13.905Z,5.77
2018-12-24T21:28:47.076Z,7.93
2018-12-24T21:31:17.021Z,7.43
2018-12-24T21:33:49.643Z,5.90
2018-12-24T21:36:19.550Z,6.43
2018-12-24T21:38:53.025Z,6.60
2018-12-24T21:41:23.242Z,8.63
2018-12-24T21:43:55.723Z,10.27
2018-12-24T21:46:25.520Z,7.03
2018-12-24T21:48:59.535Z,6.13
2018-12-24T21:51:29.443Z,5.97
2018-12-24T21:54:30.135Z,6.37
2018-12-24T22:00:11.192Z,8.20
2018-12-24T22:02:52.619Z,9.20
2018-12-24T22:05:34.619Z,6.90
2018-12-24T22:08:15.973Z,6.63
2018-12-24T22:10:57.644Z,8.37
2018-12-24T22:17:14.975Z,9.00
2018-12-24T22:20:03.681Z,7.23
2018-12-24T22:22:52.413Z,5.10
2018-12-24T22:25:22.195Z,13.27
2018-12-24T22:28:11.286Z,6.00
2018-12-24T22:30:41.366Z,7.00
2018-12-24T22:33:30.126Z,5.87
2018-12-24T22:35:59.823Z,7.60
2018-12-24T22:38:29.783Z,8.90
2018-12-24T22:41:18.724Z,8.07
2018-12-24T22:50:57.265Z,11.03
2018-12-24T22:53:35.218Z,9.17
2018-12-24T22:56:05.563Z,6.80
2018-12-24T22:58:54.303Z,7.00
2018-12-24T23:04:25.394Z,6.87
2018-12-24T23:07:06.759Z,6.87
2018-12-24T23:09:48.255Z,8.67
2018-12-24T23:12:29.771Z,7.90
2018-12-24T23:17:58.752Z,7.27
2018-12-24T23:21:06.484Z,8.33
2018-12-24T23:23:55.193Z,6.03
2018-12-24T23:27:02.936Z,6.90
2018-12-24T23:33:04.939Z,6.87
2018-12-24T23:35:58.465Z,8.40
2018-12-24T23:38:47.854Z,4.60
2018-12-24T23:41:17.814Z,8.10
2018-12-24T23:43:47.765Z,5.10
2018-12-24T23:46:17.674Z,6.37
2018-12-24T23:48:48.755Z,7.70
2018-12-24T23:51:18.530Z,6.50
2018-12-24T23:53:48.292Z,7.57
2018-12-24T23:56:18.361Z,5.23
2018-12-24T23:58:48.278Z,6.50
